Time;durP1;ratioP1;P1;durP2;ratioP2;P2;SDS_P1;SDS_P2;PMS_P1;PMS_P2;Temp;Humidity;BMP_temperature;BMP_pressure;BME280_temperature;BME280_humidity;BME280_pressure;Samples;Min_cycle;Max_cycle;Signal;HPM_P1;HPM_P2
2022/11/24 00:02:28;;;;;;;;;;;;;;;;;;5026166;28;20040;-96
2022/11/24 00:04:57;;;;;;;67.60;32.17;;;;;;;;;;5028805;28;19905;-95
2022/11/24 00:07:23;;;;;;;70.65;32.58;;;;;;;;;;5029909;28;20060;-95
2022/11/24 00:09:59;;;;;;;71.18;32.42;;;;;;;;;;5032238;28;20528;-96
2022/11/24 00:12:43;;;;;;;77.07;35.35;;;;;;;;;;5027689;28;20523;-95
2022/11/24 00:15:09;;;;;;;74.93;34.63;;;;;;;;;;5026475;28;20037;-95
2022/11/24 00:18:08;;;;;;;71.70;34.42;;;;;;;;;;5035803;28;20026;-96
2022/11/24 00:20:42;;;;;;;73.13;34.80;;;;;;;;;;5000999;28;20033;-96
2022/11/24 00:23:18;;;;;;;64.93;32.28;;;;;;;;;;5025965;28;20115;-95
2022/11/24 00:29:12;;;;;;;73.70;33.80;;;;;;;;;;5041957;28;20132;-94
2022/11/24 00:32:01;;;;;;;78.28;32.95;;;;;;;;;;5042401;28;20049;-96
2022/11/24 00:34:36;;;;;;;71.38;34.05;;;;;;;;;;5031056;28;20033;-96
2022/11/24 00:37:28;;;;;;;80.25;36.55;;;;;;;;;;5030909;28;20029;-95
2022/11/24 00:40:12;;;;;;;68.97;33.30;;;;;;;;;;5020791;28;20034;-96
2022/11/24 00:43:02;;;;;;;;;;;;;;;;;;;;;
2022/11/24 00:45:29;;;;;;;60.58;27.70;;;;;;;;;;5045647;28;20410;-95
2022/11/24 00:51:26;;;;;;;64.50;29.48;;;;;;;;;;4962988;29;20091;-95
2022/11/24 01:04:09;;;;;;;35.08;17.30;;;;;;;;;;5021764;28;20049;-96
2022/11/24 01:07:05;;;;;;;35.45;16.88;;;;;;;;;;4950643;29;20051;-95
2022/11/24 01:09:31;;;;;;;20.90;9.60;;;;;;;;;;5004926;28;20046;-94
2022/11/24 01:12:20;;;;;;;19.35;9.82;;;;;;;;;;5008854;28;20041;-96
2022/11/24 01:15:02;;;;;;;20.85;9.77;;;;;;;;;;4975812;28;20026;-96
2022/11/24 01:17:53;;;;;;;;;;;;;;;;;;;;;
2022/11/24 01:20:22;;;;;;;18.33;9.23;;;;;;;;;;5020532;28;20109;-96
2022/11/24 01:35:53;;;;;;;;;;;;;;;;;;;;;
2022/11/24 01:38:37;;;;;;;13.30;6.00;;;;;;;;;;4929673;29;20111;-96
2022/11/24 01:41:29;;;;;;;10.52;5.18;;;;;;;;;;4946752;29;20432;-96
2022/11/24 01:44:02;;;;;;;12.15;5.50;;;;;;;;;;4970120;28;20034;-95
2022/11/24 01:49:59;;;;;;;12.55;5.88;;;;;;;;;;4986394;28;20039;-96
2022/11/24 02:02:03;;;;;;;15.27;7.00;;;;;;;;;;4946348;29;20042;-96
2022/11/24 02:11:20;;;;;;;20.23;10.52;;;;;;;;;;4854665;29;20080;-96
2022/11/24 02:14:03;;;;;;;;;;;;;;;;;;;;;
2022/11/24 02:16:39;;;;;;;31.48;14.73;;;;;;;;;;4929569;29;20123;-96
2022/11/24 02:37:41;;;;;;;32.17;15.82;;;;;;;;;;4945144;29;20131;-96
2022/11/24 02:40:29;;;;;;;30.35;16.10;;;;;;;;;;4909051;29;20037;-96
2022/11/24 02:43:31;;;;;;;;;;;;;;;;;;;;;
2022/11/24 02:49:27;;;;;;;52.70;24.80;;;;;;;;;;4898200;29;20104;-95
2022/11/24 02:53:31;;;;;;;;;;;;;;;;;;;;;
2022/11/24 02:55:16;;;;;;;79.30;37.17;;;;;;;;;;4859435;29;20178;-95
2022/11/24 03:05:06;;;;;;;;;;;;;;;;;;;;;
2022/11/24 03:10:48;;;;;;;93.15;40.65;;;;;;;;;;4872092;29;20067;-95
2022/11/24 03:13:55;;;;;;;84.68;38.85;;;;;;;;;;4869014;29;20041;-96
2022/11/24 03:19:31;;;;;;;69.80;33.60;;;;;;;;;;4853574;29;20036;-94
2022/11/24 03:26:19;;;;;;;82.50;38.42;;;;;;;;;;4818748;29;20042;-96
2022/11/24 03:29:02;;;;;;;77.40;34.95;;;;;;;;;;4805113;29;20046;-95
2022/11/24 03:31:43;;;;;;;79.20;36.92;;;;;;;;;;4810812;29;20079;-95
2022/11/24 03:34:09;;;;;;;78.93;38.80;;;;;;;;;;4886392;29;20132;-94
2022/11/24 03:36:38;;;;;;;85.75;40.63;;;;;;;;;;4886260;29;20081;-94
2022/11/24 03:42:47;;;;;;;;;;;;;;;;;;;;;
2022/11/24 03:45:22;;;;;;;75.10;35.00;;;;;;;;;;4930327;28;20118;-96
2022/11/24 03:57:02;;;;;;;54.55;27.83;;;;;;;;;;4950694;29;20035;-96
2022/11/24 03:59:34;;;;;;;53.38;28.23;;;;;;;;;;4931453;29;20561;-96
2022/11/24 04:02:03;;;;;;;60.70;29.98;;;;;;;;;;4931025;29;20036;-95
2022/11/24 04:10:02;;;;;;;49.50;26.35;;;;;;;;;;5048115;23;20054;-96
2022/11/24 04:25:50;;;;;;;;;;;;;;;;;;;;;
2022/11/24 04:28:46;;;;;;;36.25;18.50;;;;;;;;;;4808814;29;20136;-96
2022/11/24 04:31:33;;;;;;;34.30;18.15;;;;;;;;;;4801061;30;20047;-94
2022/11/24 04:34:02;;;;;;;36.80;18.80;;;;;;;;;;4852678;29;20034;-96
2022/11/24 04:36:33;;;;;;;40.17;20.75;;;;;;;;;;4853957;29;20053;-96
2022/11/24 04:42:56;;;;;;;47.45;23.65;;;;;;;;;;4869195;29;20029;-95
2022/11/24 04:45:31;;;;;;;47.40;23.92;;;;;;;;;;4847513;29;20033;-95
2022/11/24 04:48:36;;;;;;;;;;;;;;;;;;;;;
2022/11/24 04:51:06;;;;;;;43.28;22.48;;;;;;;;;;4908428;29;20497;-96
2022/11/24 04:53:47;;;;;;;41.25;22.20;;;;;;;;;;4927124;29;20024;-94
2022/11/24 05:03:34;;;;;;;43.10;20.83;;;;;;;;;;4944959;29;20038;-94
2022/11/24 05:12:23;;;;;;;39.53;20.63;;;;;;;;;;4952437;29;20046;-96
2022/11/24 05:28:29;;;;;;;36.88;18.38;;;;;;;;;;4857879;29;20030;-95
2022/11/24 05:34:32;;;;;;;36.80;18.35;;;;;;;;;;4862014;29;20018;-95
2022/11/24 05:37:30;;;;;;;31.58;17.35;;;;;;;;;;4821972;29;20042;-95
2022/11/24 05:52:35;;;;;;;33.38;18.90;;;;;;;;;;4938013;29;20036;-96
2022/11/24 06:29:02;;;;;;;;;;;;;;;;;;;;;
2022/11/24 06:42:22;;;;;;;29.52;16.58;;;;;;;;;;5292421;23;20145;-92
2022/11/24 07:00:07;;;;;;;28.48;17.35;;;;;;;;;;4954524;29;20062;-94
2022/11/24 07:03:00;;;;;;;31.73;17.13;;;;;;;;;;4939760;29;20034;-94
2022/11/24 07:11:38;;;;;;;25.40;15.10;;;;;;;;;;4924657;29;20050;-94
2022/11/24 07:14:04;;;;;;;25.85;15.70;;;;;;;;;;4939631;29;20047;-93
2022/11/24 07:20:12;;;;;;;43.75;24.88;;;;;;;;;;4962670;29;20049;-96
2022/11/24 07:31:24;;;;;;;;;;;;;;;;;;;;;
2022/11/24 07:33:52;;;;;;;15.57;10.10;;;;;;;;;;4995892;28;20026;-90
2022/11/24 07:36:18;;;;;;;17.58;10.15;;;;;;;;;;4993914;28;20051;-94
2022/11/24 07:38:44;;;;;;;17.33;11.15;;;;;;;;;;4995055;28;20487;-93
2022/11/24 07:41:30;;;;;;;17.80;10.88;;;;;;;;;;4997468;28;20026;-96
2022/11/24 07:43:56;;;;;;;18.25;10.63;;;;;;;;;;4996034;28;20109;-95
2022/11/24 07:49:29;;;;;;;19.10;10.73;;;;;;;;;;5045868;23;20116;-94
2022/11/24 07:52:10;;;;;;;18.90;10.82;;;;;;;;;;5020360;28;20406;-95
2022/11/24 07:54:36;;;;;;;18.33;10.77;;;;;;;;;;5020089;28;20017;-94
2022/11/24 07:57:03;;;;;;;18.98;10.63;;;;;;;;;;5020433;28;20039;-94
2022/11/24 07:59:29;;;;;;;13.90;9.98;;;;;;;;;;5020749;28;20026;-92
2022/11/24 08:01:55;;;;;;;17.38;10.27;;;;;;;;;;5020973;28;20028;-93
2022/11/24 08:04:21;;;;;;;20.60;11.65;;;;;;;;;;5021203;28;20027;-94
2022/11/24 08:06:47;;;;;;;17.92;11.15;;;;;;;;;;5020373;28;20444;-96
2022/11/24 08:09:24;;;;;;;17.33;10.68;;;;;;;;;;5020134;28;20474;-94
2022/11/24 08:11:50;;;;;;;16.20;9.45;;;;;;;;;;5020714;28;20558;-92
2022/11/24 08:14:17;;;;;;;16.88;11.02;;;;;;;;;;5019982;28;20025;-93
2022/11/24 08:19:52;;;;;;;16.60;9.70;;;;;;;;;;5157721;23;20028;-96
2022/11/24 16:19:59;;;;;;;16.90;11.82;;;;;;;;;;5829040;23;20045;-89
2022/11/24 16:22:28;;;;;;;18.77;11.32;;;;;;;;;;5016528;28;20033;-94
2022/11/24 16:24:54;;;;;;;17.15;11.43;;;;;;;;;;5017491;28;20028;-91
2022/11/24 16:27:20;;;;;;;17.00;11.43;;;;;;;;;;5016438;28;20034;-91
2022/11/24 16:29:46;;;;;;;17.63;12.40;;;;;;;;;;5016644;28;20025;-91
2022/11/24 16:32:13;;;;;;;19.85;13.48;;;;;;;;;;5022595;28;20498;-94
2022/11/24 16:34:49;;;;;;;19.80;13.15;;;;;;;;;;5021840;28;20100;-96
2022/11/24 16:37:15;;;;;;;21.40;14.40;;;;;;;;;;5003560;28;20026;-96
2022/11/24 16:39:41;;;;;;;23.02;14.32;;;;;;;;;;5018524;28;20080;-96
2022/11/24 16:44:57;;;;;;;22.38;15.00;;;;;;;;;;5023836;28;20056;-96
2022/11/24 16:47:26;;;;;;;28.63;17.90;;;;;;;;;;5008697;28;20014;-96
2022/11/24 16:49:52;;;;;;;32.60;19.70;;;;;;;;;;5093501;23;20085;-94
2022/11/24 16:52:18;;;;;;;24.48;16.52;;;;;;;;;;5015388;28;20030;-94
2022/11/24 16:54:47;;;;;;;20.38;13.60;;;;;;;;;;5016189;28;20068;-94
2022/11/24 16:57:14;;;;;;;21.83;14.68;;;;;;;;;;5020370;28;20030;-94
2022/11/24 17:00:02;;;;;;;21.52;15.23;;;;;;;;;;5018847;28;20021;-95
2022/11/24 17:02:34;;;;;;;22.90;16.25;;;;;;;;;;5021336;28;20022;-95
2022/11/24 17:05:00;;;;;;;26.60;17.40;;;;;;;;;;5021170;28;20100;-93
2022/11/24 17:07:56;;;;;;;39.38;20.75;;;;;;;;;;5034174;28;20025;-94
2022/11/24 17:10:22;;;;;;;39.42;21.20;;;;;;;;;;5029513;28;20034;-93
2022/11/24 17:12:49;;;;;;;39.38;21.10;;;;;;;;;;5018412;28;20124;-96
2022/11/24 17:15:15;;;;;;;35.05;19.30;;;;;;;;;;5006167;28;20040;-95
2022/11/24 17:17:42;;;;;;;34.90;19.35;;;;;;;;;;5019546;28;20037;-95
2022/11/24 17:20:08;;;;;;;30.52;18.98;;;;;;;;;;5020201;28;20026;-95
2022/11/24 17:22:34;;;;;;;29.30;18.67;;;;;;;;;;5018315;28;20033;-93
2022/11/24 17:25:01;;;;;;;25.40;15.93;;;;;;;;;;5015954;28;20155;-95
2022/11/24 17:27:27;;;;;;;22.75;15.35;;;;;;;;;;5017547;28;20034;-92
2022/11/24 17:29:53;;;;;;;21.67;14.88;;;;;;;;;;5020766;28;20018;-93
2022/11/24 17:32:19;;;;;;;25.88;17.02;;;;;;;;;;5016949;28;20034;-96
2022/11/24 17:41:20;;;;;;;27.30;19.23;;;;;;;;;;4982491;28;20030;-95
2022/11/24 17:59:36;;;;;;;27.85;18.10;;;;;;;;;;5292157;23;20058;-94
2022/11/24 18:02:34;;;;;;;26.92;18.52;;;;;;;;;;5016960;28;20061;-95
2022/11/24 18:05:01;;;;;;;25.48;16.08;;;;;;;;;;4903071;29;20485;-94
2022/11/24 18:31:59;;;;;;;;;;;;;;;;;;;;;
2022/11/24 18:48:44;;;;;;;27.88;17.77;;;;;;;;;;5064791;23;20029;-96
2022/11/24 19:03:14;;;;;;;28.60;18.23;;;;;;;;;;5853840;23;20088;-96
2022/11/24 19:08:58;;;;;;;23.85;17.10;;;;;;;;;;4922786;29;20569;-95
2022/11/24 19:11:42;;;;;;;25.90;17.77;;;;;;;;;;4903839;29;20077;-93
2022/11/24 19:14:16;;;;;;;27.13;17.60;;;;;;;;;;4902391;29;20036;-95
2022/11/24 19:19:47;;;;;;;23.42;17.25;;;;;;;;;;4969802;28;20032;-95
2022/11/24 19:22:14;;;;;;;24.73;16.73;;;;;;;;;;5014106;28;20076;-96
2022/11/24 19:24:41;;;;;;;22.63;16.83;;;;;;;;;;5014280;28;20038;-95
2022/11/24 19:27:09;;;;;;;25.02;17.73;;;;;;;;;;5014591;28;20502;-95
2022/11/24 19:29:35;;;;;;;24.05;17.20;;;;;;;;;;5015158;28;20030;-94
2022/11/24 19:32:01;;;;;;;23.98;17.20;;;;;;;;;;5013833;28;20466;-93
2022/11/24 19:34:30;;;;;;;27.10;18.70;;;;;;;;;;5013223;28;20053;-92
2022/11/24 19:36:57;;;;;;;23.00;17.70;;;;;;;;;;5012725;28;20033;-92
2022/11/24 19:39:23;;;;;;;24.60;18.33;;;;;;;;;;5013572;28;20037;-92
2022/11/24 19:41:52;;;;;;;24.70;16.88;;;;;;;;;;5013390;28;20033;-92
2022/11/24 19:44:18;;;;;;;27.05;18.23;;;;;;;;;;5014719;28;20478;-93
2022/11/24 19:46:44;;;;;;;27.38;18.63;;;;;;;;;;5014940;28;20108;-94
2022/11/24 19:49:10;;;;;;;24.80;18.65;;;;;;;;;;5017003;28;20029;-93
2022/11/24 19:51:37;;;;;;;24.33;17.73;;;;;;;;;;5016793;28;20044;-94
2022/11/24 19:54:05;;;;;;;25.60;18.13;;;;;;;;;;5017020;28;20030;-94
2022/11/24 19:56:33;;;;;;;24.80;17.83;;;;;;;;;;5017136;28;20026;-92
2022/11/24 19:58:59;;;;;;;23.83;17.45;;;;;;;;;;5016856;28;20026;-94
2022/11/24 20:01:27;;;;;;;25.10;17.65;;;;;;;;;;5016845;28;20060;-93
2022/11/24 20:03:54;;;;;;;23.80;18.38;;;;;;;;;;5019786;28;20045;-94
2022/11/24 20:06:20;;;;;;;25.17;19.10;;;;;;;;;;5020209;28;20478;-94
2022/11/24 20:08:47;;;;;;;28.23;20.33;;;;;;;;;;5020301;28;20029;-93
2022/11/24 20:11:14;;;;;;;32.58;22.25;;;;;;;;;;5020291;28;20045;-93
2022/11/24 20:13:41;;;;;;;29.38;20.67;;;;;;;;;;5019844;28;20017;-93
2022/11/24 20:16:11;;;;;;;30.08;20.25;;;;;;;;;;5019728;28;20022;-93
2022/11/24 20:18:40;;;;;;;24.48;18.75;;;;;;;;;;5019873;28;20029;-91
2022/11/24 20:21:17;;;;;;;22.70;17.42;;;;;;;;;;5019817;28;20544;-92
2022/11/24 20:23:44;;;;;;;22.60;17.80;;;;;;;;;;5020129;28;20022;-91
2022/11/24 20:26:21;;;;;;;22.35;17.35;;;;;;;;;;5012637;28;20044;-94
2022/11/24 20:28:47;;;;;;;22.17;15.65;;;;;;;;;;5018560;28;20116;-92
2022/11/24 20:34:43;;;;;;;31.33;21.67;;;;;;;;;;4938532;29;20122;-95
2022/11/24 20:37:12;;;;;;;33.22;21.83;;;;;;;;;;4922491;29;20074;-94
2022/11/24 20:39:39;;;;;;;29.35;19.90;;;;;;;;;;5011245;28;20477;-94
2022/11/24 20:42:06;;;;;;;24.67;18.52;;;;;;;;;;5020272;28;20107;-93
2022/11/24 20:44:32;;;;;;;22.92;17.10;;;;;;;;;;5019829;28;20033;-95
2022/11/24 20:47:00;;;;;;;21.85;17.10;;;;;;;;;;5020405;28;20033;-94
2022/11/24 20:49:26;;;;;;;26.52;18.95;;;;;;;;;;5020220;28;20030;-95
2022/11/24 20:51:56;;;;;;;26.70;19.40;;;;;;;;;;5020028;28;20030;-94
2022/11/24 20:54:23;;;;;;;25.75;19.05;;;;;;;;;;5040126;28;20022;-95
2022/11/24 21:06:01;;;;;;;20.42;15.80;;;;;;;;;;5235289;23;20088;-93
2022/11/24 21:08:27;;;;;;;25.20;17.25;;;;;;;;;;5019384;28;20026;-93
2022/11/24 21:10:54;;;;;;;25.13;17.67;;;;;;;;;;5019112;28;20038;-93
2022/11/24 21:13:20;;;;;;;22.88;17.45;;;;;;;;;;5019898;28;20032;-92
2022/11/24 21:15:46;;;;;;;21.33;16.48;;;;;;;;;;5019384;28;20034;-92
2022/11/24 21:18:12;;;;;;;25.45;18.17;;;;;;;;;;5019415;28;20018;-93
2022/11/24 21:20:41;;;;;;;27.95;19.42;;;;;;;;;;5022036;28;20029;-91
2022/11/24 21:23:08;;;;;;;29.13;19.42;;;;;;;;;;5021203;28;20079;-93
2022/11/24 21:25:34;;;;;;;27.42;19.17;;;;;;;;;;5018813;28;20061;-93
2022/11/24 21:28:00;;;;;;;26.38;17.55;;;;;;;;;;5018585;28;20025;-95
